Danville, IL (61832)

7:13 PM CDT on May 22, 2015 (GMT -0500)
Danville Area Community College | | Change Station
CLOSE
Current Station
Personal Weather Station
Location: Danville, IL
Elevation: 656 ft
Nearby Weather Stations

Elev 656 ft 40.13 °N, 87.59 °W | Updated 36 seconds ago

Clear
Clear
74.5 °F
Feels Like 77 °F
N
0.0
Wind Variable Wind from ENE
Gusts 0.0 mph

Today
High -- | Low -- °F
--% Chance of Precip.
Yesterday
High -- | Low -- °F
Precip. -- in
5:29 AM 8:05 PM
Waxing Crescent, 25% visible
Pressure 30.18 in
Visibility 7.0 miles
Clouds Clear
Heat Index 77 °F
Dew Point 45 °F
Humidity 35%
Rainfall 0.00 in
Snow Depth Not available.
UV 1 out of 12
Pollen 9.10 out of 12
Air Quality Not available.
Flu Activity Sporadic
METAR KDNV 222355Z AUTO 00000KT 7SM CLR 23/05 A3018 RMK AO2 T02270051 10241 20222

More Conditions Fewer Conditions

Pressure 30.18 in
Visibility 7.0 miles
Clouds Clear
Heat Index 77 °F
Dew Point 45 °F
Humidity 35%
Rainfall 0.00 in
Snow Depth Not available.
UV 1 out of 12
Pollen 9.10 out of 12
Air Quality Not available.
Flu Activity Sporadic
METAR KDNV 222355Z AUTO 00000KT 7SM CLR 23/05 A3018 RMK AO2 T02270051 10241 20222

More Conditions Fewer Conditions

10-Day Weather Forecast

Almanac

Astronomy

May. 22, 2015 Rise Set
Actual Time
Civil Twilight
Nautical Twilight
Astronomical Twilight
Moon
Length of Visible Light
Length of Day
Tomorrow will be .
, % of the Moon is Illuminated

Today's Extremes

State Highs State Lows

Community

WunderPhotos

Upload Photos

1,823,338 photos uploaded!

WunderBlogs® & News

Nearby

Air Quality

  Air Quality AQ Index Pollutant
Not available.

Snow Depth

Station Depth Elevation

Earthquake Activity

City Distance Mag. Time & Date
Minimum magnitude displayed is 2.5.

Coastal Water Temperatures

Place Temperature

Stations

Nearby Weather Stations

Station Location Temp. Windchill Dew Point Humidity Wind Precip. Elev Updated Type